Time;durP1;ratioP1;P1;durP2;ratioP2;P2;SDS_P1;SDS_P2;PMS_P1;PMS_P2;Temp;Humidity;BMP_temperature;BMP_pressure;BME280_temperature;BME280_humidity;BME280_pressure;Samples;Min_cycle;Max_cycle;Signal;HPM_P1;HPM_P2
2023/05/16 00:00:07;;;;;;;0.10;0.10;;;12.90;88.80;;;;;;5061389;28;20025;-81
2023/05/16 00:02:34;;;;;;;0.20;0.20;;;12.90;88.90;;;;;;5041068;28;20392;-81
2023/05/16 00:05:00;;;;;;;0.10;0.10;;;12.80;89.30;;;;;;5053135;28;20474;-81
2023/05/16 00:07:26;;;;;;;0.20;0.20;;;12.70;89.70;;;;;;5058822;28;20479;-80
2023/05/16 00:09:51;;;;;;;0.30;0.27;;;12.80;89.80;;;;;;5060502;28;20036;-79
2023/05/16 00:12:18;;;;;;;0.65;0.65;;;12.80;89.60;;;;;;5062029;28;20142;-79
2023/05/16 00:14:44;;;;;;;0.10;0.10;;;12.80;89.40;;;;;;5059098;28;20021;-79
2023/05/16 00:17:10;;;;;;;0.35;0.35;;;12.80;90.20;;;;;;5059198;28;20044;-79
2023/05/16 00:19:40;;;;;;;0.10;0.10;;;12.80;90.00;;;;;;5049811;28;20139;-79
2023/05/16 00:22:06;;;;;;;0.32;0.32;;;12.80;89.80;;;;;;5052849;28;20135;-80
2023/05/16 00:24:33;;;;;;;0.43;0.43;;;12.80;89.70;;;;;;5050093;28;20100;-80
2023/05/16 00:26:58;;;;;;;0.10;0.10;;;12.90;89.30;;;;;;5050753;28;20056;-80
2023/05/16 00:29:25;;;;;;;0.67;0.50;;;12.90;89.30;;;;;;5056288;28;20079;-82
2023/05/16 00:31:50;;;;;;;2.28;0.47;;;12.90;88.60;;;;;;5049272;28;20029;-82
2023/05/16 00:34:16;;;;;;;0.20;0.20;;;12.80;88.90;;;;;;5051723;28;20040;-81
2023/05/16 00:36:42;;;;;;;0.37;0.37;;;12.80;89.30;;;;;;5059003;28;20031;-81
2023/05/16 00:39:10;;;;;;;0.10;0.10;;;12.70;89.40;;;;;;5057110;28;20021;-81
2023/05/16 00:41:36;;;;;;;0.25;0.25;;;12.80;89.30;;;;;;5042816;28;20032;-81
2023/05/16 00:44:01;;;;;;;0.25;0.25;;;12.80;89.00;;;;;;5058262;28;20070;-81
2023/05/16 00:46:27;;;;;;;0.10;0.10;;;12.90;88.90;;;;;;5060330;28;20024;-81
2023/05/16 00:48:53;;;;;;;0.60;0.43;;;12.80;89.30;;;;;;5057316;28;20054;-81
2023/05/16 00:51:19;;;;;;;0.20;0.20;;;12.70;89.20;;;;;;5059727;28;20047;-81
2023/05/16 00:53:45;;;;;;;0.10;0.10;;;12.70;89.90;;;;;;5055795;28;20399;-81
2023/05/16 00:56:11;;;;;;;0.15;0.15;;;12.70;89.50;;;;;;5052544;28;20563;-81
2023/05/16 00:58:36;;;;;;;0.35;0.35;;;12.70;90.10;;;;;;5059226;28;20040;-80
2023/05/16 01:01:03;;;;;;;0.20;0.20;;;12.50;90.30;;;;;;5060705;28;20027;-80
2023/05/16 01:03:30;;;;;;;;;;;12.40;90.60;;;;;;5060577;28;20039;-81
2023/05/16 01:05:57;;;;;;;0.15;0.15;;;12.30;90.70;;;;;;5058736;28;19927;-81
2023/05/16 01:08:23;;;;;;;;;;;12.20;90.80;;;;;;5039378;28;20033;-81
2023/05/16 01:11:10;;;;;;;0.20;0.20;;;12.20;90.90;;;;;;5060748;28;19953;-82
2023/05/16 01:13:55;;;;;;;0.52;0.52;;;12.10;91.10;;;;;;5056542;28;20106;-80
2023/05/16 01:16:45;;;;;;;0.22;0.22;;;12.10;91.20;;;;;;5053450;28;20536;-80
2023/05/16 01:19:48;;;;;;;0.20;0.20;;;12.20;91.10;;;;;;5058812;28;20020;-79
2023/05/16 01:22:31;;;;;;;0.10;0.10;;;12.20;91.10;;;;;;5064547;28;20111;-80
2023/05/16 01:25:18;;;;;;;0.80;0.70;;;12.20;91.10;;;;;;5064989;28;20030;-80
2023/05/16 01:27:45;;;;;;;0.08;0.08;;;12.20;91.20;;;;;;5065206;28;20043;-80
2023/05/16 01:30:16;;;;;;;0.10;0.10;;;12.00;91.60;;;;;;5056855;28;20037;-79
2023/05/16 01:32:42;;;;;;;0.13;0.13;;;12.10;91.50;;;;;;5061148;28;20063;-80
2023/05/16 01:35:10;;;;;;;0.10;0.10;;;12.10;91.60;;;;;;5064361;28;20021;-81
2023/05/16 01:37:42;;;;;;;0.30;0.30;;;12.10;91.50;;;;;;5065256;28;21211;-82
2023/05/16 01:40:37;;;;;;;0.15;0.15;;;12.20;91.50;;;;;;5053155;28;20104;-83
2023/05/16 01:43:10;;;;;;;0.10;0.10;;;12.10;91.80;;;;;;5052205;28;20090;-84
2023/05/16 01:45:43;;;;;;;0.32;0.28;;;12.10;91.90;;;;;;5060967;28;20021;-82
2023/05/16 01:48:21;;;;;;;0.45;0.45;;;12.00;91.90;;;;;;5066781;28;20035;-83
2023/05/16 01:50:53;;;;;;;0.20;0.20;;;11.90;92.20;;;;;;5056360;28;20091;-82
2023/05/16 01:53:24;;;;;;;0.43;0.43;;;11.90;92.50;;;;;;5064801;28;20099;-82
2023/05/16 01:55:56;;;;;;;0.10;0.10;;;11.80;92.80;;;;;;5059778;28;20029;-85
2023/05/16 01:58:26;;;;;;;0.10;0.10;;;11.80;92.90;;;;;;5057680;28;20720;-83
2023/05/16 02:00:53;;;;;;;0.10;0.10;;;11.80;92.90;;;;;;5057043;28;20028;-83
2023/05/16 02:03:19;;;;;;;;;;;11.80;93.00;;;;;;5060005;28;20078;-84
2023/05/16 02:05:44;;;;;;;0.10;0.10;;;11.70;93.00;;;;;;5061846;28;19912;-84
2023/05/16 02:08:12;;;;;;;0.20;0.20;;;11.70;93.10;;;;;;5066850;28;20040;-83
2023/05/16 02:10:40;;;;;;;0.80;0.55;;;11.80;93.10;;;;;;5066866;28;20020;-84
2023/05/16 02:13:05;;;;;;;0.20;0.20;;;11.80;93.10;;;;;;5046135;28;20138;-81
2023/05/16 02:15:31;;;;;;;0.20;0.20;;;11.90;93.10;;;;;;5064879;28;20036;-81
2023/05/16 02:17:57;;;;;;;0.20;0.20;;;12.00;93.00;;;;;;5059607;28;20491;-82
2023/05/16 02:20:23;;;;;;;0.20;0.20;;;12.10;93.00;;;;;;5066172;28;20024;-82
2023/05/16 02:22:48;;;;;;;0.10;0.10;;;12.10;93.10;;;;;;5067367;28;20032;-81
2023/05/16 02:25:15;;;;;;;0.98;0.90;;;12.10;93.00;;;;;;5066068;28;20029;-82
2023/05/16 02:27:41;;;;;;;0.40;0.40;;;12.10;93.10;;;;;;5065320;28;20043;-82
2023/05/16 02:30:09;;;;;;;1.13;0.63;;;12.10;93.10;;;;;;5060844;28;20279;-82
2023/05/16 02:32:35;;;;;;;0.10;0.10;;;12.00;93.30;;;;;;5045104;28;20139;-82
2023/05/16 02:35:00;;;;;;;0.10;0.10;;;12.00;93.20;;;;;;5060968;28;20069;-81
2023/05/16 02:37:26;;;;;;;1.08;0.55;;;12.10;93.10;;;;;;5062680;28;20028;-81
2023/05/16 02:39:52;;;;;;;0.75;0.75;;;12.00;93.20;;;;;;5063610;28;20078;-80
2023/05/16 02:42:17;;;;;;;0.20;0.20;;;12.00;93.30;;;;;;5062214;28;20040;-80
2023/05/16 02:44:43;;;;;;;0.20;0.20;;;12.10;93.30;;;;;;5041862;28;20032;-80
2023/05/16 02:47:09;;;;;;;0.20;0.20;;;12.20;93.20;;;;;;5062107;28;20052;-79
2023/05/16 02:49:34;;;;;;;0.20;0.20;;;12.10;93.20;;;;;;5064386;28;20052;-82
2023/05/16 02:52:00;;;;;;;1.30;0.77;;;12.10;93.50;;;;;;5062301;28;20138;-82
2023/05/16 02:54:26;;;;;;;0.10;0.10;;;12.00;93.50;;;;;;5057814;28;20074;-82
2023/05/16 02:56:52;;;;;;;0.37;0.37;;;12.10;93.60;;;;;;5060699;28;20037;-82
2023/05/16 02:59:18;;;;;;;0.10;0.10;;;12.00;93.90;;;;;;5062034;28;20679;-81
2023/05/16 03:01:43;;;;;;;0.55;0.38;;;12.00;93.50;;;;;;5056492;28;20503;-81
2023/05/16 03:04:09;;;;;;;0.10;0.10;;;11.90;93.50;;;;;;5057888;28;20563;-81
2023/05/16 03:06:35;;;;;;;0.20;0.20;;;12.00;93.40;;;;;;5057192;28;20028;-81
2023/05/16 03:09:00;;;;;;;0.95;0.70;;;12.00;92.80;;;;;;5063948;28;20070;-80
2023/05/16 03:11:27;;;;;;;0.10;0.10;;;12.00;92.90;;;;;;5062058;28;20063;-81
2023/05/16 03:13:53;;;;;;;0.65;0.60;;;12.00;92.90;;;;;;5055982;28;20024;-80
2023/05/16 03:16:19;;;;;;;0.20;0.20;;;12.00;92.80;;;;;;5059355;28;20043;-82
2023/05/16 03:18:45;;;;;;;0.17;0.17;;;12.00;92.80;;;;;;5056749;28;20021;-81
2023/05/16 03:21:10;;;;;;;0.10;0.10;;;12.00;92.40;;;;;;5056281;28;20064;-82
2023/05/16 03:23:36;;;;;;;0.25;0.25;;;12.00;92.60;;;;;;5042213;28;20044;-82
2023/05/16 03:26:02;;;;;;;0.20;0.20;;;12.00;92.60;;;;;;5056014;28;20880;-82
2023/05/16 03:28:27;;;;;;;0.03;0.03;;;12.00;92.50;;;;;;5059717;28;20024;-82
2023/05/16 03:30:53;;;;;;;0.20;0.20;;;12.00;92.80;;;;;;5063706;28;20025;-82
2023/05/16 03:33:19;;;;;;;0.10;0.10;;;12.10;92.80;;;;;;5060667;28;20024;-83
2023/05/16 03:35:45;;;;;;;4.30;0.55;;;12.00;92.70;;;;;;5059250;28;20031;-82
2023/05/16 03:38:11;;;;;;;0.20;0.20;;;11.90;92.80;;;;;;5053764;28;20032;-83
2023/05/16 03:40:37;;;;;;;0.20;0.20;;;12.00;92.70;;;;;;5052577;28;20117;-83
2023/05/16 03:43:03;;;;;;;0.10;0.10;;;12.00;92.60;;;;;;5052058;28;20889;-83
2023/05/16 03:45:31;;;;;;;0.25;0.25;;;11.90;92.70;;;;;;5059914;28;20024;-82
2023/05/16 03:47:57;;;;;;;0.10;0.10;;;11.90;92.30;;;;;;5062646;28;20044;-82
2023/05/16 03:50:23;;;;;;;0.00;0.00;;;11.90;92.20;;;;;;5060381;28;20481;-81
2023/05/16 03:52:49;;;;;;;0.10;0.10;;;11.90;92.00;;;;;;5062504;28;20036;-81
2023/05/16 03:55:15;;;;;;;0.25;0.22;;;11.90;91.90;;;;;;5059880;28;20041;-81
2023/05/16 03:57:41;;;;;;;0.43;0.43;;;12.00;91.70;;;;;;5055932;28;20020;-81
2023/05/16 04:00:09;;;;;;;0.10;0.10;;;12.00;91.70;;;;;;5059715;28;20120;-82
2023/05/16 04:02:35;;;;;;;0.20;0.20;;;12.00;91.60;;;;;;5062071;28;20040;-81
2023/05/16 04:05:02;;;;;;;0.10;0.10;;;11.90;91.10;;;;;;5055497;28;20396;-82
2023/05/16 04:07:27;;;;;;;0.10;0.10;;;12.00;91.40;;;;;;5057034;28;20586;-82
2023/05/16 04:09:55;;;;;;;0.20;0.20;;;12.00;91.50;;;;;;5054971;28;20087;-80
2023/05/16 04:12:21;;;;;;;0.10;0.10;;;12.00;91.80;;;;;;5061675;28;20052;-81
2023/05/16 04:14:47;;;;;;;0.43;0.43;;;11.90;92.00;;;;;;5055954;28;20093;-81
2023/05/16 04:17:13;;;;;;;0.10;0.10;;;11.80;92.50;;;;;;5054939;28;20108;-81
2023/05/16 04:19:39;;;;;;;0.00;0.00;;;11.90;92.50;;;;;;5046185;28;20025;-81
2023/05/16 04:22:06;;;;;;;0.20;0.20;;;11.90;92.60;;;;;;5055596;28;20891;-81
2023/05/16 04:24:32;;;;;;;1.75;0.52;;;11.90;92.70;;;;;;5053360;28;20025;-81
2023/05/16 04:26:58;;;;;;;0.27;0.27;;;11.90;92.80;;;;;;5053151;28;20028;-80
2023/05/16 04:29:24;;;;;;;0.10;0.10;;;11.80;92.80;;;;;;5057143;28;20075;-81
2023/05/16 04:31:50;;;;;;;0.10;0.10;;;11.80;92.90;;;;;;5051674;28;20024;-80
2023/05/16 04:34:15;;;;;;;0.10;0.10;;;11.80;92.90;;;;;;5035721;28;20036;-80
2023/05/16 04:36:41;;;;;;;0.55;0.30;;;12.00;92.80;;;;;;5055416;28;20033;-80
2023/05/16 04:39:07;;;;;;;0.20;0.20;;;12.00;92.80;;;;;;5060521;28;20415;-80
2023/05/16 04:41:35;;;;;;;0.52;0.52;;;12.00;92.80;;;;;;5059526;28;20514;-81
2023/05/16 04:44:03;;;;;;;0.55;0.55;;;12.10;92.50;;;;;;5052779;28;20036;-82
2023/05/16 04:46:29;;;;;;;0.10;0.10;;;12.20;92.50;;;;;;5051774;28;20037;-82
2023/05/16 04:48:55;;;;;;;0.10;0.10;;;12.30;92.30;;;;;;5053129;28;20107;-82
2023/05/16 04:51:20;;;;;;;1.15;0.43;;;12.20;92.30;;;;;;5046542;28;20052;-82
2023/05/16 04:53:46;;;;;;;0.30;0.30;;;12.10;92.40;;;;;;5048983;28;20663;-82
2023/05/16 04:56:12;;;;;;;0.63;0.30;;;11.90;92.80;;;;;;5059376;28;20040;-82
2023/05/16 04:58:38;;;;;;;0.10;0.10;;;11.90;92.80;;;;;;5050298;28;20489;-83
2023/05/16 05:01:04;;;;;;;0.27;0.27;;;11.80;92.90;;;;;;5049727;28;20078;-82
2023/05/16 05:03:29;;;;;;;0.00;0.00;;;12.00;92.70;;;;;;5051846;28;20524;-82
2023/05/16 05:05:55;;;;;;;0.38;0.38;;;12.00;92.70;;;;;;5056471;28;20396;-82
2023/05/16 05:08:21;;;;;;;0.00;0.00;;;12.10;92.70;;;;;;5049494;28;20035;-84
2023/05/16 05:10:47;;;;;;;0.30;0.30;;;12.10;92.40;;;;;;5046614;28;20029;-82
2023/05/16 05:13:13;;;;;;;0.43;0.43;;;12.00;92.50;;;;;;5043468;28;20098;-81
2023/05/16 05:15:38;;;;;;;0.13;0.13;;;12.10;92.30;;;;;;5049757;28;20029;-81
2023/05/16 05:18:04;;;;;;;0.00;0.00;;;12.10;92.20;;;;;;5054067;28;20033;-84
2023/05/16 05:20:30;;;;;;;0.10;0.10;;;12.20;92.20;;;;;;5048316;28;20025;-83
2023/05/16 05:22:56;;;;;;;0.10;0.10;;;12.40;91.90;;;;;;5055348;28;21307;-83
2023/05/16 05:25:21;;;;;;;0.10;0.10;;;12.70;91.30;;;;;;5030367;28;20609;-85
2023/05/16 05:27:47;;;;;;;0.10;0.10;;;13.10;90.90;;;;;;5047103;28;20033;-84
2023/05/16 05:30:13;;;;;;;0.10;0.10;;;13.30;90.40;;;;;;5046416;28;20740;-85
2023/05/16 05:32:38;;;;;;;0.10;0.10;;;13.00;90.50;;;;;;5043358;28;20033;-83
2023/05/16 05:35:05;;;;;;;0.00;0.00;;;12.80;91.10;;;;;;5046926;28;20538;-83
2023/05/16 05:37:31;;;;;;;0.10;0.10;;;12.80;91.10;;;;;;5046653;28;20476;-83
2023/05/16 05:39:56;;;;;;;0.37;0.37;;;12.80;90.80;;;;;;5040740;28;20077;-84
2023/05/16 05:42:22;;;;;;;0.10;0.10;;;12.90;90.80;;;;;;5041031;28;20432;-83
2023/05/16 05:44:48;;;;;;;0.10;0.10;;;13.00;90.70;;;;;;5044611;28;20029;-84
2023/05/16 05:47:14;;;;;;;0.50;0.50;;;12.80;90.80;;;;;;5040654;28;20039;-83
2023/05/16 05:49:40;;;;;;;0.20;0.20;;;12.60;91.10;;;;;;5051036;28;20044;-82
2023/05/16 05:52:06;;;;;;;0.10;0.10;;;12.80;90.80;;;;;;5045474;28;20845;-84
2023/05/16 05:54:32;;;;;;;0.10;0.10;;;13.00;90.40;;;;;;5050290;28;20028;-83
2023/05/16 05:56:58;;;;;;;0.17;0.17;;;13.40;89.80;;;;;;5044420;28;20754;-83
2023/05/16 05:59:24;;;;;;;0.00;0.00;;;13.60;88.50;;;;;;5044330;28;20033;-84
2023/05/16 06:01:51;;;;;;;0.15;0.15;;;13.60;88.10;;;;;;5055634;28;20490;-84
2023/05/16 06:04:20;;;;;;;0.00;0.00;;;13.90;87.20;;;;;;5054679;28;20090;-85
2023/05/16 06:06:45;;;;;;;0.00;0.00;;;13.80;87.10;;;;;;5054431;28;20035;-84
2023/05/16 06:09:12;;;;;;;0.08;0.08;;;13.60;86.60;;;;;;5057341;28;20033;-85
2023/05/16 06:11:38;;;;;;;0.10;0.10;;;13.90;86.80;;;;;;5060968;28;20143;-85
2023/05/16 06:14:04;;;;;;;0.08;0.08;;;14.40;84.70;;;;;;5055629;28;20071;-83
2023/05/16 06:16:30;;;;;;;0.00;0.00;;;14.80;81.80;;;;;;5045171;28;20140;-82
2023/05/16 06:18:55;;;;;;;0.03;0.03;;;14.90;82.60;;;;;;5052708;28;20155;-82
2023/05/16 06:21:21;;;;;;;0.00;0.00;;;16.30;78.60;;;;;;5052618;28;20028;-83
2023/05/16 06:23:47;;;;;;;0.20;0.20;;;16.20;74.40;;;;;;5062962;28;20041;-83
2023/05/16 06:26:12;;;;;;;0.17;0.17;;;15.20;78.00;;;;;;5045033;28;20032;-84
2023/05/16 06:28:38;;;;;;;0.00;0.00;;;14.70;78.40;;;;;;5049897;28;20024;-80
2023/05/16 06:31:04;;;;;;;0.00;0.00;;;14.70;77.50;;;;;;5052323;28;20024;-83
2023/05/16 06:33:30;;;;;;;0.00;0.00;;;17.70;70.30;;;;;;5061157;28;20443;-83
2023/05/16 06:35:56;;;;;;;0.00;0.00;;;20.50;63.60;;;;;;5046863;28;20029;-82
2023/05/16 06:38:21;;;;;;;0.00;0.00;;;20.70;59.50;;;;;;5045007;28;20060;-82
2023/05/16 06:40:48;;;;;;;0.00;0.00;;;21.30;59.00;;;;;;5047414;28;20092;-82
2023/05/16 06:43:13;;;;;;;0.00;0.00;;;21.90;56.80;;;;;;5047647;28;20092;-81
2023/05/16 06:45:40;;;;;;;0.00;0.00;;;21.20;55.30;;;;;;5044217;28;20784;-84
2023/05/16 06:48:06;;;;;;;0.00;0.00;;;21.90;57.20;;;;;;5057004;28;20124;-83
2023/05/16 06:50:34;;;;;;;0.00;0.00;;;23.50;53.10;;;;;;5052914;28;20049;-82
2023/05/16 06:53:00;;;;;;;0.20;0.20;;;23.40;52.40;;;;;;5052739;28;20012;-81
2023/05/16 06:55:26;;;;;;;0.00;0.00;;;22.80;50.30;;;;;;5047830;28;20036;-82
2023/05/16 06:57:51;;;;;;;0.00;0.00;;;19.10;59.70;;;;;;5056786;28;20036;-84
2023/05/16 07:00:18;;;;;;;0.00;0.00;;;19.30;61.90;;;;;;5054760;28;20055;-84
2023/05/16 07:02:43;;;;;;;0.00;0.00;;;20.40;56.40;;;;;;5054600;28;20124;-84
2023/05/16 07:05:09;;;;;;;0.00;0.00;;;17.50;62.20;;;;;;5054769;28;20029;-84
2023/05/16 07:07:35;;;;;;;0.10;0.10;;;18.60;62.80;;;;;;5045845;28;20089;-84
2023/05/16 07:10:01;;;;;;;0.03;0.03;;;21.30;53.70;;;;;;5063000;28;20064;-82
2023/05/16 07:12:27;;;;;;;0.00;0.00;;;24.10;50.40;;;;;;5063647;28;20024;-82
2023/05/16 07:14:52;;;;;;;0.00;0.00;;;24.90;48.00;;;;;;5061259;28;20709;-84
2023/05/16 07:17:18;;;;;;;0.00;0.00;;;24.80;48.30;;;;;;5049643;28;20029;-83
2023/05/16 07:19:44;;;;;;;0.00;0.00;;;24.50;46.90;;;;;;5063380;28;20024;-83
2023/05/16 07:22:11;;;;;;;0.00;0.00;;;24.40;46.30;;;;;;5062328;28;20090;-84
2023/05/16 07:24:36;;;;;;;0.00;0.00;;;23.20;50.70;;;;;;5059623;28;20025;-81
2023/05/16 07:27:02;;;;;;;0.00;0.00;;;25.10;45.70;;;;;;5061095;28;20379;-84
2023/05/16 07:29:29;;;;;;;0.00;0.00;;;23.60;45.20;;;;;;5060689;28;20108;-84
2023/05/16 07:31:55;;;;;;;0.20;0.20;;;24.40;45.30;;;;;;5060740;28;20025;-84
2023/05/16 07:34:21;;;;;;;0.00;0.00;;;26.30;44.50;;;;;;5061868;28;20028;-83
2023/05/16 07:36:46;;;;;;;0.00;0.00;;;26.30;44.90;;;;;;5059542;28;20043;-83
2023/05/16 07:39:12;;;;;;;0.00;0.00;;;25.30;45.70;;;;;;5056133;28;20111;-83
2023/05/16 07:41:37;;;;;;;0.00;0.00;;;22.00;47.40;;;;;;5059033;28;20032;-82
2023/05/16 07:44:03;;;;;;;0.00;0.00;;;19.30;53.20;;;;;;5058351;28;20066;-83
2023/05/16 07:46:29;;;;;;;0.00;0.00;;;17.90;55.80;;;;;;5058211;28;20021;-83
2023/05/16 07:48:55;;;;;;;0.00;0.00;;;22.20;50.80;;;;;;5052932;28;20727;-83
2023/05/16 07:51:21;;;;;;;0.00;0.00;;;23.00;46.50;;;;;;5061453;28;20831;-83
2023/05/16 07:53:46;;;;;;;0.70;0.35;;;25.50;45.80;;;;;;5056818;28;20036;-84
2023/05/16 07:56:12;;;;;;;0.00;0.00;;;24.40;44.20;;;;;;5055950;28;20032;-83
2023/05/16 07:58:38;;;;;;;0.00;0.00;;;26.00;41.90;;;;;;5050650;28;20064;-83
2023/05/16 08:01:04;;;;;;;0.00;0.00;;;25.60;43.60;;;;;;5056430;28;20024;-83
2023/05/16 08:03:30;;;;;;;0.00;0.00;;;26.90;41.30;;;;;;5054969;28;20093;-83
2023/05/16 08:05:55;;;;;;;0.00;0.00;;;27.80;41.50;;;;;;5062359;28;20040;-82
2023/05/16 08:08:21;;;;;;;0.00;0.00;;;27.90;39.30;;;;;;5062272;28;20098;-83
2023/05/16 08:10:47;;;;;;;0.00;0.00;;;27.70;38.30;;;;;;5062683;28;20090;-81
2023/05/16 08:13:12;;;;;;;;;;;27.60;40.30;;;;;;5049961;28;20033;-84
2023/05/16 08:15:38;;;;;;;;;;;24.80;40.90;;;;;;5061942;28;19909;-82
2023/05/16 08:18:11;;;;;;;0.00;0.00;;;22.90;46.90;;;;;;5062183;28;19954;-83
2023/05/16 08:20:36;;;;;;;0.00;0.00;;;24.80;44.70;;;;;;5062060;28;20262;-82
2023/05/16 08:23:02;;;;;;;0.00;0.00;;;27.30;40.80;;;;;;5058680;28;20048;-83
2023/05/16 08:25:28;;;;;;;0.00;0.00;;;26.60;43.90;;;;;;5058509;28;20032;-83
2023/05/16 08:27:54;;;;;;;0.00;0.00;;;27.40;38.20;;;;;;5057652;28;20021;-82
2023/05/16 08:30:19;;;;;;;0.00;0.00;;;24.10;44.00;;;;;;5052645;28;20035;-82
2023/05/16 08:32:45;;;;;;;0.10;0.10;;;22.60;45.90;;;;;;5047526;28;20021;-83
2023/05/16 08:35:11;;;;;;;0.00;0.00;;;24.60;43.80;;;;;;5050539;28;20052;-82
2023/05/16 08:37:37;;;;;;;0.00;0.00;;;23.10;46.00;;;;;;5058329;28;20068;-82
2023/05/16 08:40:07;;;;;;;0.00;0.00;;;22.70;45.50;;;;;;5051113;28;20462;-83
2023/05/16 08:42:33;;;;;;;0.00;0.00;;;21.60;50.30;;;;;;5048686;28;20110;-82
2023/05/16 08:44:59;;;;;;;;;;;25.30;45.40;;;;;;5056574;28;20029;-84
2023/05/16 08:47:26;;;;;;;;;;;24.80;43.50;;;;;;5056776;28;20434;-83
2023/05/16 08:49:55;;;;;;;0.00;0.00;;;24.10;48.60;;;;;;5053764;28;20295;-83
2023/05/16 08:52:25;;;;;;;0.10;0.10;;;22.30;47.50;;;;;;5051884;28;20070;-84
2023/05/16 08:54:52;;;;;;;0.10;0.10;;;21.40;48.80;;;;;;5058719;28;20106;-82
2023/05/16 08:57:19;;;;;;;0.00;0.00;;;22.50;49.30;;;;;;5049232;28;20596;-82
2023/05/16 08:59:45;;;;;;;0.22;0.20;;;22.90;47.30;;;;;;5047373;28;20047;-82
2023/05/16 09:02:11;;;;;;;0.00;0.00;;;23.30;48.30;;;;;;5052850;28;20036;-83
2023/05/16 09:04:38;;;;;;;0.00;0.00;;;22.50;45.50;;;;;;5061411;28;20043;-83
2023/05/16 09:07:04;;;;;;;0.03;0.03;;;21.70;50.40;;;;;;5061015;28;20095;-83
2023/05/16 09:09:29;;;;;;;0.00;0.00;;;22.00;50.20;;;;;;5061197;28;20616;-83
2023/05/16 09:11:55;;;;;;;0.00;0.00;;;23.90;47.50;;;;;;5061708;28;20028;-84
2023/05/16 09:14:21;;;;;;;0.43;0.28;;;20.40;50.60;;;;;;5061966;28;20099;-83
2023/05/16 09:17:06;;;;;;;0.00;0.00;;;20.00;53.30;;;;;;5055815;28;20120;-81
2023/05/16 09:19:41;;;;;;;0.00;0.00;;;19.40;54.40;;;;;;5060815;28;20063;-84
2023/05/16 09:22:14;;;;;;;0.00;0.00;;;20.00;52.20;;;;;;5060135;28;20543;-82
2023/05/16 09:24:43;;;;;;;0.10;0.10;;;23.20;46.70;;;;;;5063197;28;20098;-82
2023/05/16 09:27:10;;;;;;;0.00;0.00;;;21.40;50.40;;;;;;5057600;28;20029;-85
2023/05/16 09:29:35;;;;;;;0.00;0.00;;;20.30;51.60;;;;;;5060598;28;20025;-82
2023/05/16 09:32:13;;;;;;;0.00;0.00;;;20.40;52.10;;;;;;5060393;28;20048;-84
2023/05/16 09:34:43;;;;;;;0.10;0.10;;;19.70;52.70;;;;;;5059887;28;20059;-83
2023/05/16 09:37:10;;;;;;;0.00;0.00;;;19.50;53.70;;;;;;5054436;28;20032;-84
2023/05/16 09:39:35;;;;;;;0.00;0.00;;;19.60;53.20;;;;;;5041816;28;20033;-83
2023/05/16 09:42:01;;;;;;;1.03;0.37;;;19.20;53.70;;;;;;5057170;28;20035;-83
2023/05/16 09:44:27;;;;;;;0.00;0.00;;;19.10;54.20;;;;;;5041435;28;20036;-81
2023/05/16 09:46:54;;;;;;;0.00;0.00;;;19.10;54.30;;;;;;5055929;28;20151;-84
2023/05/16 09:49:20;;;;;;;0.05;0.05;;;18.30;54.40;;;;;;5057334;28;20029;-81
2023/05/16 09:51:46;;;;;;;0.00;0.00;;;18.10;57.00;;;;;;5054769;28;20457;-82
2023/05/16 09:54:12;;;;;;;0.00;0.00;;;18.60;56.10;;;;;;5038400;28;20576;-83
2023/05/16 09:56:50;;;;;;;0.20;0.20;;;18.70;56.50;;;;;;5054017;28;20041;-84
2023/05/16 09:59:16;;;;;;;0.00;0.00;;;18.00;55.80;;;;;;5056981;28;20036;-85
2023/05/16 10:01:43;;;;;;;0.00;0.00;;;17.70;56.50;;;;;;5058032;28;20024;-82
2023/05/16 10:04:12;;;;;;;0.00;0.00;;;17.80;56.10;;;;;;5066201;28;20036;-82
2023/05/16 10:06:41;;;;;;;0.00;0.00;;;16.80;57.50;;;;;;5065035;28;20236;-84
2023/05/16 10:09:11;;;;;;;0.00;0.00;;;16.40;59.30;;;;;;5064913;28;20576;-84
2023/05/16 10:11:40;;;;;;;0.10;0.10;;;16.80;58.30;;;;;;5064213;28;20032;-83
2023/05/16 10:14:08;;;;;;;0.00;0.00;;;16.80;60.30;;;;;;5047385;28;20032;-84
2023/05/16 10:16:34;;;;;;;0.00;0.00;;;16.80;61.20;;;;;;5064738;28;20066;-84
2023/05/16 10:19:02;;;;;;;0.00;0.00;;;16.50;58.50;;;;;;5064381;28;20032;-82
2023/05/16 10:21:29;;;;;;;0.00;0.00;;;16.50;60.20;;;;;;5062939;28;20021;-83
2023/05/16 10:23:57;;;;;;;0.43;0.30;;;16.60;59.40;;;;;;5058101;28;20519;-82
2023/05/16 10:26:24;;;;;;;0.00;0.00;;;16.40;59.30;;;;;;5037415;28;20024;-84
2023/05/16 10:28:51;;;;;;;0.25;0.25;;;16.30;60.50;;;;;;5060823;28;20040;-82
2023/05/16 10:31:17;;;;;;;0.30;0.28;;;16.30;60.50;;;;;;5057263;28;20047;-82
2023/05/16 10:33:44;;;;;;;0.65;0.30;;;16.00;61.70;;;;;;5058572;28;20070;-85
2023/05/16 10:36:10;;;;;;;;;;;16.10;61.60;;;;;;5065890;28;20024;-82
2023/05/16 10:38:37;;;;;;;0.10;0.10;;;16.10;61.20;;;;;;5057247;28;20019;-84
2023/05/16 10:41:04;;;;;;;0.00;0.00;;;16.50;59.70;;;;;;5051183;28;20025;-84
2023/05/16 10:43:30;;;;;;;0.00;0.00;;;16.40;59.90;;;;;;5057669;28;20044;-85
2023/05/16 10:45:57;;;;;;;0.10;0.10;;;16.20;60.30;;;;;;5053105;28;20102;-83
2023/05/16 10:48:34;;;;;;;0.00;0.00;;;16.30;59.60;;;;;;5053681;28;20100;-84
2023/05/16 10:51:02;;;;;;;0.00;0.00;;;16.00;60.70;;;;;;5054108;28;20061;-81
2023/05/16 10:53:34;;;;;;;0.00;0.00;;;16.40;60.30;;;;;;5056817;28;20029;-82
2023/05/16 10:56:02;;;;;;;0.90;0.90;;;17.00;59.30;;;;;;5051930;28;20028;-84
2023/05/16 10:58:37;;;;;;;0.20;0.20;;;17.30;58.70;;;;;;5055844;28;20016;-83
2023/05/16 11:01:16;;;;;;;0.00;0.00;;;17.60;57.20;;;;;;5063965;28;20040;-83
2023/05/16 11:04:03;;;;;;;0.00;0.00;;;16.70;58.70;;;;;;5063771;28;20083;-84
2023/05/16 11:06:41;;;;;;;0.00;0.00;;;16.10;60.40;;;;;;5062745;28;20074;-82
2023/05/16 11:09:09;;;;;;;0.00;0.00;;;16.20;60.40;;;;;;5063540;28;20024;-82
2023/05/16 11:11:53;;;;;;;0.10;0.10;;;16.20;60.40;;;;;;5064072;28;20193;-82
2023/05/16 11:14:18;;;;;;;0.22;0.22;;;17.20;58.60;;;;;;5063590;28;20114;-81
2023/05/16 11:16:49;;;;;;;0.30;0.30;;;18.50;56.90;;;;;;5063950;28;20025;-84
2023/05/16 11:19:32;;;;;;;0.00;0.00;;;18.70;55.20;;;;;;5063721;28;20028;-83
2023/05/16 11:22:06;;;;;;;0.00;0.00;;;17.50;56.30;;;;;;5067820;28;20024;-83
2023/05/16 11:24:34;;;;;;;0.03;0.03;;;16.70;57.20;;;;;;5058965;28;20078;-83
2023/05/16 11:27:02;;;;;;;0.00;0.00;;;16.90;58.00;;;;;;5061292;28;20024;-84
2023/05/16 11:29:30;;;;;;;0.00;0.00;;;16.60;59.00;;;;;;5060250;28;20040;-83
2023/05/16 11:31:58;;;;;;;0.10;0.10;;;17.10;58.80;;;;;;5059035;28;20089;-81
2023/05/16 11:34:24;;;;;;;0.28;0.28;;;17.90;59.30;;;;;;5058876;28;20023;-83
2023/05/16 11:36:50;;;;;;;0.00;0.00;;;18.90;57.90;;;;;;5041121;28;20024;-81
2023/05/16 11:39:18;;;;;;;0.10;0.10;;;18.80;54.10;;;;;;5055689;28;20086;-83
2023/05/16 11:41:44;;;;;;;0.08;0.08;;;18.70;54.70;;;;;;5057091;28;20023;-83
2023/05/16 11:44:13;;;;;;;0.00;0.00;;;19.00;55.90;;;;;;5056479;28;20044;-83
2023/05/16 11:46:42;;;;;;;0.00;0.00;;;18.50;54.20;;;;;;5055962;28;20035;-83
2023/05/16 11:49:11;;;;;;;0.28;0.20;;;18.20;58.20;;;;;;5060054;28;20038;-83
2023/05/16 11:51:40;;;;;;;1.08;0.88;;;17.80;55.70;;;;;;5057301;28;20615;-82
2023/05/16 11:54:09;;;;;;;0.00;0.00;;;17.70;55.80;;;;;;5056719;28;20024;-83
2023/05/16 11:56:35;;;;;;;0.20;0.20;;;17.30;57.00;;;;;;5051795;28;20044;-84
2023/05/16 11:59:01;;;;;;;;;;;16.80;57.60;;;;;;5052419;28;20430;-83
2023/05/16 12:01:49;;;;;;;0.00;0.00;;;16.50;57.60;;;;;;5052932;28;19912;-80
2023/05/16 12:04:16;;;;;;;0.00;0.00;;;16.50;59.20;;;;;;5036479;28;20045;-83
2023/05/16 12:06:43;;;;;;;0.38;0.38;;;17.00;58.60;;;;;;5048956;28;20025;-83
2023/05/16 12:09:13;;;;;;;0.20;0.20;;;16.70;57.60;;;;;;5066759;28;20017;-83
2023/05/16 12:11:43;;;;;;;0.43;0.43;;;16.80;56.80;;;;;;5062075;28;20085;-83
2023/05/16 12:14:11;;;;;;;0.00;0.00;;;16.90;56.40;;;;;;5061575;28;20484;-83
2023/05/16 12:16:38;;;;;;;0.00;0.00;;;17.40;55.30;;;;;;5061780;28;20020;-83
2023/05/16 12:19:07;;;;;;;0.10;0.10;;;17.30;57.60;;;;;;5060041;28;20770;-84
2023/05/16 12:21:33;;;;;;;0.17;0.17;;;16.50;57.10;;;;;;5043398;28;20052;-84
2023/05/16 12:24:00;;;;;;;0.00;0.00;;;16.30;57.50;;;;;;5059078;28;20040;-83
2023/05/16 12:26:29;;;;;;;0.08;0.08;;;15.60;59.50;;;;;;5060877;28;20110;-80
2023/05/16 12:29:04;;;;;;;0.10;0.10;;;15.60;59.30;;;;;;5060047;28;20052;-81
2023/05/16 12:31:34;;;;;;;0.10;0.10;;;15.80;58.40;;;;;;5059750;28;20439;-82
2023/05/16 12:34:00;;;;;;;0.43;0.43;;;16.10;58.60;;;;;;5052094;28;20051;-82
2023/05/16 12:36:31;;;;;;;0.10;0.10;;;15.60;59.80;;;;;;5054617;28;20016;-82
2023/05/16 12:39:00;;;;;;;1.33;0.50;;;16.20;58.00;;;;;;5058526;28;20036;-82
2023/05/16 12:41:26;;;;;;;0.47;0.47;;;16.80;58.10;;;;;;5058506;28;20031;-80
2023/05/16 12:44:12;;;;;;;0.10;0.10;;;17.00;56.60;;;;;;5057670;28;20044;-83
2023/05/16 12:46:42;;;;;;;3.78;1.10;;;17.50;56.90;;;;;;5055779;28;20032;-83
2023/05/16 12:49:08;;;;;;;0.00;0.00;;;17.30;56.40;;;;;;5053802;28;20467;-84